createdAt,value
2019-03-01T00:00:19.359Z,17.80
2019-03-01T00:03:05.781Z,12.20
2019-03-01T00:08:25.074Z,20.60
2019-03-01T00:10:55.072Z,17.00
2019-03-01T00:13:41.513Z,14.20
2019-03-01T00:16:09.067Z,19.00
2019-03-01T00:18:36.677Z,9.00
2019-03-01T00:21:23.050Z,16.00
2019-03-01T00:23:50.757Z,17.60
2019-03-01T00:29:11.348Z,19.00
2019-03-01T00:31:39.046Z,13.00
2019-03-01T00:34:07.120Z,12.00
2019-03-01T00:36:34.790Z,25.00
2019-03-01T00:39:21.093Z,17.20
2019-03-01T00:41:48.829Z,16.40
2019-03-01T00:44:16.404Z,21.00
2019-03-01T00:47:02.837Z,18.00
2019-03-01T00:49:33.154Z,16.40
2019-03-01T00:52:19.505Z,17.60
2019-03-01T00:54:47.032Z,15.20
2019-03-01T00:57:14.745Z,15.60
2019-03-01T01:00:01.120Z,13.80
2019-03-01T01:02:28.809Z,16.40
2019-03-01T01:04:56.577Z,11.60
2019-03-01T01:07:42.955Z,11.60
2019-03-01T01:10:10.727Z,9.40
2019-03-01T01:12:57.162Z,14.60
2019-03-01T01:15:43.568Z,13.00
2019-03-01T01:18:11.596Z,10.80
2019-03-01T01:20:57.991Z,13.40
2019-03-01T01:23:25.682Z,12.80
2019-03-01T01:25:53.236Z,12.00
2019-03-01T01:28:39.667Z,10.80
2019-03-01T01:31:07.298Z,11.00
2019-03-01T01:33:34.897Z,8.80
2019-03-01T01:36:22.929Z,11.60
2019-03-01T01:38:50.547Z,8.40
2019-03-01T01:41:37.896Z,12.20
2019-03-01T01:44:05.639Z,11.60
2019-03-01T01:46:52.308Z,11.60
2019-03-01T01:49:20.001Z,9.00
2019-03-01T01:51:47.665Z,10.80
2019-03-01T01:54:15.233Z,9.80
2019-03-01T01:56:42.901Z,9.20
2019-03-01T01:59:10.548Z,10.00
2019-03-01T02:01:57.107Z,9.40
2019-03-01T02:04:43.533Z,8.20
2019-03-01T02:07:11.219Z,11.60
2019-03-01T02:09:57.567Z,9.20
2019-03-01T02:12:43.976Z,1.40
2019-03-01T02:15:12.646Z,9.80
2019-03-01T02:17:59.620Z,9.60
2019-03-01T02:20:27.167Z,12.60
2019-03-01T02:22:54.835Z,4.80
2019-03-01T02:25:22.506Z,7.00
2019-03-01T02:27:50.157Z,9.40
2019-03-01T02:30:17.946Z,10.80
2019-03-01T02:32:45.584Z,9.60
2019-03-01T02:38:06.320Z,12.20
2019-03-01T02:40:52.689Z,3.40
2019-03-01T02:43:20.784Z,5.60
2019-03-01T02:45:48.441Z,8.60
2019-03-01T02:48:34.852Z,9.00
2019-03-01T02:51:02.509Z,8.20
2019-03-01T02:53:31.715Z,12.60
2019-03-01T02:56:18.110Z,12.40
2019-03-01T02:58:45.715Z,13.00
2019-03-01T03:03:45.781Z,13.40
2019-03-01T03:06:32.313Z,12.20
2019-03-01T03:09:18.763Z,14.80
2019-03-01T03:11:46.477Z,10.00
2019-03-01T03:14:14.421Z,12.20
2019-03-01T03:17:00.919Z,11.00
2019-03-01T03:19:47.274Z,10.40
2019-03-01T03:22:14.913Z,10.00
2019-03-01T03:25:01.372Z,12.00
2019-03-01T03:27:29.373Z,10.00
2019-03-01T03:29:57.133Z,9.80
2019-03-01T03:32:24.909Z,10.00
2019-03-01T03:34:52.523Z,6.60
2019-03-01T03:37:20.217Z,12.00
2019-03-01T03:40:06.544Z,9.00
2019-03-01T03:42:52.989Z,9.80
2019-03-01T03:45:39.302Z,6.00
2019-03-01T03:48:06.878Z,14.80
2019-03-01T03:50:53.158Z,8.60
2019-03-01T03:53:20.873Z,12.00
2019-03-01T03:56:08.932Z,10.00
2019-03-01T03:58:36.953Z,13.60
2019-03-01T04:01:04.929Z,4.40
2019-03-01T04:03:51.334Z,12.20
2019-03-01T04:06:19.086Z,10.40
2019-03-01T04:09:05.792Z,10.00
2019-03-01T04:11:33.564Z,9.40
2019-03-01T04:14:01.323Z,10.00
2019-03-01T04:16:47.616Z,8.20
2019-03-01T04:19:15.294Z,11.00
2019-03-01T04:22:01.693Z,10.20
2019-03-01T04:24:29.388Z,13.80
2019-03-01T04:27:16.031Z,12.60
2019-03-01T04:29:43.715Z,6.40
2019-03-01T04:35:18.195Z,6.60
2019-03-01T04:37:45.824Z,6.00
2019-03-01T04:40:13.639Z,7.00
2019-03-01T04:42:41.752Z,9.20
2019-03-01T04:45:09.352Z,6.20
2019-03-01T04:47:57.336Z,5.60
2019-03-01T04:50:43.602Z,5.20
2019-03-01T04:53:11.205Z,4.40
2019-03-01T04:55:57.525Z,5.20
2019-03-01T04:58:25.177Z,6.80
2019-03-01T05:01:11.785Z,4.80
2019-03-01T05:03:39.545Z,4.40
2019-03-01T05:06:07.213Z,7.80
2019-03-01T05:08:35.268Z,3.80
2019-03-01T05:11:21.616Z,6.20
2019-03-01T05:14:08.355Z,8.60
2019-03-01T05:16:54.779Z,7.00
2019-03-01T05:19:22.453Z,6.00
2019-03-01T05:22:08.843Z,8.20
2019-03-01T05:24:36.403Z,7.40
2019-03-01T05:29:38.289Z,7.80
2019-03-01T05:32:08.652Z,9.60
2019-03-01T05:34:55.010Z,7.20
2019-03-01T05:37:22.631Z,4.00
2019-03-01T05:40:08.987Z,12.00
2019-03-01T05:42:36.635Z,7.40
2019-03-01T05:45:04.697Z,11.40
2019-03-01T05:47:51.010Z,12.40
2019-03-01T05:50:18.667Z,9.60
2019-03-01T05:52:46.215Z,6.20
2019-03-01T05:55:32.534Z,9.60
2019-03-01T05:58:00.061Z,12.20
2019-03-01T06:00:27.617Z,12.20
2019-03-01T06:03:14.012Z,18.20
2019-03-01T06:05:41.856Z,11.40
2019-03-01T06:08:42.448Z,12.40
2019-03-01T06:10:58.301Z,13.00
2019-03-01T06:13:28.973Z,14.20
2019-03-01T06:15:58.793Z,10.20
2019-03-01T06:18:26.329Z,14.20
2019-03-01T06:20:54.092Z,12.60
2019-03-01T06:23:21.693Z,10.60
2019-03-01T06:25:49.241Z,15.00
2019-03-01T06:28:35.650Z,13.60
2019-03-01T06:31:03.275Z,7.00
2019-03-01T06:33:31.044Z,11.20
2019-03-01T06:39:04.142Z,14.00
2019-03-01T06:42:04.356Z,13.00
2019-03-01T06:44:19.667Z,11.20
2019-03-01T06:46:47.605Z,12.20
2019-03-01T06:49:33.959Z,12.60
2019-03-01T06:52:01.902Z,12.80
2019-03-01T06:54:31.824Z,12.80
2019-03-01T06:56:59.561Z,12.00
2019-03-01T06:59:29.093Z,8.20
2019-03-01T07:01:56.575Z,11.80
2019-03-01T07:04:24.117Z,8.80
2019-03-01T07:06:51.999Z,15.40
2019-03-01T07:09:26.574Z,12.00
2019-03-01T07:11:54.111Z,12.20
2019-03-01T07:14:21.953Z,16.80
2019-03-01T07:16:49.821Z,12.80
2019-03-01T07:19:17.356Z,3.40
2019-03-01T07:21:45.255Z,16.80
2019-03-01T07:24:12.929Z,15.20
2019-03-01T07:26:40.489Z,12.80
2019-03-01T07:29:08.298Z,15.40
2019-03-01T07:31:35.893Z,13.80
2019-03-01T07:34:03.499Z,14.40
2019-03-01T07:36:31.316Z,15.20
2019-03-01T07:38:58.934Z,15.40
2019-03-01T07:41:26.540Z,11.20
2019-03-01T07:43:54.352Z,14.60
2019-03-01T07:46:21.881Z,18.00
2019-03-01T07:48:49.385Z,17.40
2019-03-01T07:51:16.911Z,14.60
2019-03-01T07:53:44.475Z,18.60
2019-03-01T07:56:12.212Z,18.60
2019-03-01T07:58:45.146Z,22.00
2019-03-01T08:01:12.700Z,14.80
2019-03-01T08:03:42.578Z,17.40
2019-03-01T08:06:14.357Z,12.40
2019-03-01T08:08:42.126Z,19.40
2019-03-01T08:11:09.706Z,18.80
2019-03-01T08:13:49.440Z,20.80
2019-03-01T08:16:10.374Z,23.60
2019-03-01T08:18:44.122Z,10.80
2019-03-01T08:21:11.505Z,21.00
2019-03-01T08:23:42.170Z,17.40
2019-03-01T08:26:11.794Z,18.40
2019-03-01T08:28:40.169Z,25.20
2019-03-01T08:31:09.926Z,19.80
2019-03-01T08:33:42.397Z,27.40
2019-03-01T08:36:14.387Z,26.40
2019-03-01T08:38:42.258Z,27.60
2019-03-01T08:41:09.853Z,25.40
2019-03-01T08:43:37.404Z,23.00
2019-03-01T08:46:05.443Z,26.80
2019-03-01T08:48:34.850Z,14.80
2019-03-01T08:51:02.493Z,32.80
2019-03-01T08:53:31.898Z,30.40
2019-03-01T08:55:59.522Z,32.00
2019-03-01T08:58:29.039Z,21.00
2019-03-01T09:00:59.873Z,25.40
2019-03-01T09:03:27.553Z,30.40
2019-03-01T09:05:55.008Z,34.00
2019-03-01T09:08:22.927Z,27.40
2019-03-01T09:10:50.458Z,30.40
2019-03-01T09:13:18.050Z,38.20
2019-03-01T09:15:49.360Z,34.00
2019-03-01T09:18:17.885Z,38.60
2019-03-01T09:20:47.136Z,26.20
2019-03-01T09:23:22.853Z,27.60
2019-03-01T09:25:50.126Z,43.00
2019-03-01T09:28:17.695Z,32.40
2019-03-01T09:30:45.902Z,31.00
2019-03-01T09:33:13.352Z,35.80
2019-03-01T09:36:05.763Z,46.80
2019-03-01T09:38:39.535Z,18.40
2019-03-01T09:41:08.364Z,37.00
2019-03-01T09:43:43.367Z,35.20
2019-03-01T09:46:15.188Z,31.40
2019-03-01T09:48:41.603Z,41.80
2019-03-01T09:51:10.640Z,42.60
2019-03-01T09:53:40.642Z,48.40
2019-03-01T09:56:09.716Z,40.20
2019-03-01T09:58:38.783Z,41.20
2019-03-01T10:01:08.773Z,38.00
2019-03-01T10:03:36.404Z,46.20
2019-03-01T10:06:05.663Z,44.80
2019-03-01T10:08:33.249Z,42.20
2019-03-01T10:11:00.808Z,47.60
2019-03-01T10:13:30.329Z,42.80
2019-03-01T10:15:58.067Z,37.20
2019-03-01T10:18:27.843Z,49.00
2019-03-01T10:20:55.406Z,44.20
2019-03-01T10:23:22.991Z,48.80
2019-03-01T10:25:50.581Z,45.00
2019-03-01T10:28:19.711Z,47.00
2019-03-01T10:30:47.268Z,49.60
2019-03-01T10:33:14.832Z,40.80
2019-03-01T10:35:45.022Z,43.20
2019-03-01T10:38:12.661Z,41.80
2019-03-01T10:40:40.197Z,36.20
2019-03-01T10:43:08.432Z,35.80
2019-03-01T10:45:36.019Z,38.60
2019-03-01T10:48:05.828Z,35.20
2019-03-01T10:50:33.705Z,37.60
2019-03-01T10:53:01.321Z,21.80
2019-03-01T10:55:28.901Z,34.40
2019-03-01T10:57:56.663Z,29.60
2019-03-01T11:00:24.602Z,33.80
2019-03-01T11:02:52.159Z,26.60
2019-03-01T11:05:23.998Z,28.40
2019-03-01T11:07:51.626Z,37.20
2019-03-01T11:10:19.240Z,26.00
2019-03-01T11:12:47.041Z,34.00
2019-03-01T11:15:14.551Z,35.60
2019-03-01T11:17:42.162Z,10.80
2019-03-01T11:20:10.913Z,25.20
2019-03-01T11:22:38.363Z,28.00
2019-03-01T11:25:07.867Z,27.60
2019-03-01T11:27:35.718Z,24.60
2019-03-01T11:30:03.346Z,31.40
2019-03-01T11:32:30.885Z,27.60
2019-03-01T11:34:59.806Z,31.60
2019-03-01T11:37:27.339Z,27.20
2019-03-01T11:39:55.981Z,25.20
2019-03-01T11:42:26.126Z,24.00
2019-03-01T11:44:53.712Z,17.60
2019-03-01T11:47:21.273Z,27.60
2019-03-01T11:49:54.179Z,10.20
2019-03-01T11:52:24.452Z,27.80
2019-03-01T11:54:54.196Z,16.20
2019-03-01T11:57:23.074Z,21.20
2019-03-01T11:59:50.561Z,17.20
2019-03-01T12:02:19.828Z,21.00
2019-03-01T12:04:47.650Z,22.40
2019-03-01T12:07:15.222Z,13.00
2019-03-01T12:09:42.760Z,30.40
2019-03-01T12:12:17.567Z,18.60
2019-03-01T12:14:45.406Z,15.40
2019-03-01T12:17:16.091Z,18.80
2019-03-01T12:19:43.971Z,21.40
2019-03-01T12:22:17.094Z,18.40
2019-03-01T12:24:40.767Z,21.40
2019-03-01T12:27:18.850Z,21.40
2019-03-01T12:29:48.674Z,27.00
2019-03-01T12:32:23.218Z,29.20
2019-03-01T12:34:48.462Z,16.40
2019-03-01T12:37:34.878Z,24.00
2019-03-01T12:40:04.957Z,26.20
2019-03-01T12:42:32.528Z,22.20
2019-03-01T12:45:00.358Z,23.40
2019-03-01T12:47:29.269Z,19.40
2019-03-01T12:49:56.801Z,24.00
2019-03-01T12:52:24.369Z,25.20
2019-03-01T12:54:51.903Z,23.60
2019-03-01T12:57:22.145Z,24.60
2019-03-01T12:59:50.059Z,19.80
2019-03-01T13:02:17.524Z,27.00
2019-03-01T13:04:53.482Z,18.20
2019-03-01T13:07:21.584Z,15.40
2019-03-01T13:09:49.197Z,16.40
2019-03-01T13:12:17.089Z,16.00
2019-03-01T13:14:44.885Z,14.60
2019-03-01T13:17:12.427Z,19.00
2019-03-01T13:19:39.987Z,15.20
2019-03-01T13:22:09.790Z,9.20
2019-03-01T13:24:40.534Z,15.40
2019-03-01T13:27:07.652Z,13.80
2019-03-01T13:29:35.500Z,17.00
2019-03-01T13:32:11.240Z,16.60
2019-03-01T13:34:38.463Z,12.40
2019-03-01T13:37:06.658Z,15.60
2019-03-01T13:39:34.198Z,15.00
2019-03-01T13:42:01.775Z,10.80
2019-03-01T13:44:29.980Z,12.80
2019-03-01T13:46:57.556Z,12.00
2019-03-01T13:49:26.710Z,14.20
2019-03-01T13:51:54.548Z,11.40
2019-03-01T13:54:25.230Z,12.60
2019-03-01T13:56:53.850Z,9.60
2019-03-01T13:59:21.700Z,13.80
2019-03-01T14:01:49.226Z,11.40
2019-03-01T14:04:16.838Z,11.80
2019-03-01T14:07:03.210Z,11.60
2019-03-01T14:20:06.737Z,11.20
2019-03-01T14:22:34.606Z,9.40
2019-03-01T14:25:05.220Z,14.00
2019-03-01T14:27:31.680Z,15.20
2019-03-01T14:29:59.179Z,12.00
2019-03-01T14:32:45.448Z,12.80
2019-03-01T14:35:16.149Z,16.40
2019-03-01T14:37:54.210Z,13.60
2019-03-01T14:40:22.780Z,15.00
2019-03-01T14:42:56.880Z,12.00
2019-03-01T14:45:20.078Z,8.20
2019-03-01T14:47:50.727Z,14.00
2019-03-01T14:50:25.810Z,13.20
2019-03-01T14:52:58.079Z,12.40
2019-03-01T14:55:24.888Z,11.60
2019-03-01T14:57:54.989Z,6.40
2019-03-01T15:00:22.549Z,13.00
2019-03-01T15:02:50.479Z,19.00
2019-03-01T15:05:20.052Z,14.60
2019-03-01T15:07:47.513Z,16.40
2019-03-01T15:10:21.113Z,18.00
2019-03-01T15:12:54.065Z,12.00
2019-03-01T15:15:22.882Z,15.00
2019-03-01T15:17:53.828Z,12.00
2019-03-01T15:20:25.761Z,13.80
2019-03-01T15:22:53.657Z,16.80
2019-03-01T15:25:24.255Z,22.40
2019-03-01T15:27:51.723Z,18.80
2019-03-01T15:30:19.550Z,21.40
2019-03-01T15:32:56.198Z,17.80
2019-03-01T15:35:23.756Z,19.40
2019-03-01T15:37:51.363Z,9.60
2019-03-01T15:40:18.925Z,16.20
2019-03-01T15:42:51.457Z,16.80
2019-03-01T15:45:20.534Z,15.00
2019-03-01T15:47:50.272Z,11.60
2019-03-01T15:50:17.599Z,9.20
2019-03-01T15:52:45.612Z,11.20
2019-03-01T15:55:14.421Z,15.60
2019-03-01T15:57:44.939Z,10.40
2019-03-01T16:00:12.415Z,8.60
2019-03-01T16:02:40.139Z,11.60
2019-03-01T16:05:07.939Z,13.00
2019-03-01T16:07:35.466Z,9.00
2019-03-01T16:10:08.114Z,16.00
2019-03-01T16:12:37.919Z,12.80
2019-03-01T16:15:05.175Z,14.60
2019-03-01T16:17:35.861Z,16.40
2019-03-01T16:20:25.127Z,11.60
2019-03-01T16:22:54.079Z,16.20
2019-03-01T16:25:21.528Z,10.80
2019-03-01T16:27:54.180Z,15.00
2019-03-01T16:30:21.512Z,13.20
2019-03-01T16:32:50.615Z,15.80
2019-03-01T16:35:20.281Z,19.80
2019-03-01T16:37:49.673Z,16.00
2019-03-01T16:40:19.592Z,19.20
2019-03-01T16:42:54.153Z,12.40
2019-03-01T16:45:21.181Z,16.00
2019-03-01T16:47:54.506Z,17.00
2019-03-01T16:50:22.121Z,17.20
2019-03-01T16:52:52.083Z,14.40
2019-03-01T16:55:24.321Z,17.20
2019-03-01T16:57:52.424Z,17.60
2019-03-01T17:00:20.325Z,17.40
2019-03-01T17:02:50.053Z,13.00
2019-03-01T17:05:17.605Z,16.80
2019-03-01T17:07:45.186Z,15.20
2019-03-01T17:10:14.890Z,15.00
2019-03-01T17:12:42.393Z,17.60
2019-03-01T17:15:13.851Z,16.00
2019-03-01T17:17:41.411Z,10.40
2019-03-01T17:20:10.813Z,15.20
2019-03-01T17:22:38.290Z,16.20
2019-03-01T17:25:06.163Z,9.80
2019-03-01T17:27:34.119Z,12.00
2019-03-01T17:30:01.600Z,16.80
2019-03-01T17:32:29.392Z,12.80
2019-03-01T17:35:01.139Z,15.00
2019-03-01T17:37:32.279Z,15.00
2019-03-01T17:39:58.771Z,15.40
2019-03-01T17:42:26.247Z,11.20
2019-03-01T17:44:54.482Z,14.20
2019-03-01T17:47:25.457Z,8.60
2019-03-01T17:49:54.080Z,13.40
2019-03-01T17:52:22.063Z,13.40
2019-03-01T17:54:49.941Z,10.80
2019-03-01T17:57:20.190Z,9.00
2019-03-01T17:59:48.357Z,11.80
2019-03-01T18:02:17.112Z,13.40
2019-03-01T18:04:44.686Z,8.20
2019-03-01T18:07:12.256Z,12.20
2019-03-01T18:09:40.017Z,12.60
2019-03-01T18:12:07.683Z,15.40
2019-03-01T18:14:36.905Z,12.80
2019-03-01T18:17:04.841Z,9.60
2019-03-01T18:19:33.427Z,9.00
2019-03-01T18:22:01.153Z,11.20
2019-03-01T18:24:29.892Z,11.20
2019-03-01T18:26:57.449Z,18.20
2019-03-01T18:29:24.953Z,16.40
2019-03-01T18:31:52.763Z,19.20
2019-03-01T18:34:20.331Z,12.40
2019-03-01T18:36:50.591Z,9.40
2019-03-01T18:39:21.352Z,9.20
2019-03-01T18:41:49.739Z,9.60
2019-03-01T18:44:17.310Z,10.00
2019-03-01T18:47:04.002Z,12.80
2019-03-01T18:49:31.582Z,10.00
2019-03-01T18:52:08.064Z,7.00
2019-03-01T18:54:35.829Z,9.20
2019-03-01T18:57:04.622Z,6.00
2019-03-01T18:59:32.431Z,9.80
2019-03-01T19:02:13.833Z,7.00
2019-03-01T19:04:41.100Z,7.40
2019-03-01T19:07:15.207Z,9.00
2019-03-01T19:09:43.043Z,4.80
2019-03-01T19:12:13.580Z,9.00
2019-03-01T19:14:59.023Z,9.00
2019-03-01T19:17:26.560Z,5.60
2019-03-01T19:19:54.390Z,5.60
2019-03-01T19:22:28.030Z,9.20
2019-03-01T19:24:54.152Z,6.40
2019-03-01T19:27:25.690Z,6.00
2019-03-01T19:29:53.259Z,10.00
2019-03-01T19:32:27.920Z,8.40
2019-03-01T19:34:58.979Z,6.00
2019-03-01T19:37:26.367Z,7.40
2019-03-01T19:39:56.457Z,7.00
2019-03-01T19:42:29.507Z,9.20
2019-03-01T19:44:56.645Z,8.60
2019-03-01T19:47:26.492Z,14.80
2019-03-01T19:49:53.662Z,10.60
2019-03-01T19:52:24.937Z,10.00
2019-03-01T19:54:52.524Z,14.20
2019-03-01T19:57:22.326Z,9.80
2019-03-01T19:59:53.643Z,9.40
2019-03-01T20:02:21.184Z,6.80
2019-03-01T20:04:49.022Z,10.40
2019-03-01T20:07:19.776Z,12.80
2019-03-01T20:09:47.187Z,11.20
2019-03-01T20:12:15.036Z,10.80
2019-03-01T20:14:42.582Z,6.40
2019-03-01T20:17:10.552Z,10.00
2019-03-01T20:19:38.426Z,9.80
2019-03-01T20:22:10.423Z,12.00
2019-03-01T20:24:40.451Z,12.20
2019-03-01T20:27:07.571Z,8.60
2019-03-01T20:29:35.164Z,10.00
2019-03-01T20:32:05.682Z,6.00
2019-03-01T20:34:34.779Z,11.60
2019-03-01T20:37:09.941Z,8.60
2019-03-01T20:39:37.461Z,13.20
2019-03-01T20:42:08.319Z,10.80
2019-03-01T20:44:40.890Z,8.80
2019-03-01T20:47:09.432Z,9.40
2019-03-01T20:49:40.654Z,11.40
2019-03-01T20:52:08.321Z,12.60
2019-03-01T20:54:35.866Z,10.60
2019-03-01T20:57:03.725Z,8.40
2019-03-01T20:59:31.251Z,9.40
2019-03-01T21:02:01.183Z,12.80
2019-03-01T21:04:53.402Z,11.80
2019-03-01T21:07:22.412Z,6.60
2019-03-01T21:09:50.229Z,8.20
2019-03-01T21:12:18.559Z,9.00
2019-03-01T21:14:46.180Z,8.40
2019-03-01T21:17:16.808Z,10.00
2019-03-01T21:19:43.794Z,11.60
2019-03-01T21:22:17.897Z,6.20
2019-03-01T21:24:45.635Z,12.40
2019-03-01T21:27:13.179Z,9.00
2019-03-01T21:29:57.883Z,4.80
2019-03-01T21:32:26.745Z,12.60
2019-03-01T21:34:54.328Z,7.00
2019-03-01T21:37:21.823Z,12.40
2019-03-01T21:39:49.663Z,15.00
2019-03-01T21:42:20.295Z,15.40
2019-03-01T21:44:46.718Z,10.80
2019-03-01T21:47:15.545Z,12.60
2019-03-01T21:49:45.173Z,15.20
2019-03-01T21:52:12.295Z,11.40
2019-03-01T21:54:40.107Z,19.80
2019-03-01T21:57:09.809Z,9.80
2019-03-01T21:59:38.479Z,15.40
2019-03-01T22:02:06.350Z,18.40
2019-03-01T22:04:38.263Z,15.20
2019-03-01T22:07:09.903Z,16.00
2019-03-01T22:09:42.059Z,17.60
2019-03-01T22:12:12.688Z,20.40
2019-03-01T22:14:40.295Z,7.80
2019-03-01T22:17:10.380Z,16.80
2019-03-01T22:19:38.528Z,15.60
2019-03-01T22:22:07.413Z,18.60
2019-03-01T22:24:38.124Z,16.40
2019-03-01T22:27:08.408Z,16.00
2019-03-01T22:29:35.961Z,14.20
2019-03-01T22:32:03.865Z,12.20
2019-03-01T22:34:32.157Z,13.40
2019-03-01T22:37:02.344Z,13.60
2019-03-01T22:39:30.194Z,9.40
2019-03-01T22:41:57.854Z,15.60
2019-03-01T22:44:25.391Z,13.80
2019-03-01T22:46:53.190Z,10.40
2019-03-01T22:49:20.673Z,15.00
2019-03-01T22:51:49.557Z,13.60
2019-03-01T22:54:18.890Z,12.60
2019-03-01T22:57:05.987Z,16.40
2019-03-01T22:59:35.713Z,5.60
2019-03-01T23:02:08.194Z,14.20
2019-03-01T23:04:35.382Z,12.40
2019-03-01T23:07:03.278Z,17.60
2019-03-01T23:09:46.399Z,13.80
2019-03-01T23:12:22.325Z,9.40
2019-03-01T23:15:11.801Z,6.40
2019-03-01T23:20:27.491Z,13.80
2019-03-01T23:23:14.033Z,12.60
2019-03-01T23:25:42.911Z,11.40
2019-03-01T23:28:30.379Z,10.40
2019-03-01T23:31:09.558Z,10.00
2019-03-01T23:33:27.679Z,11.40
2019-03-01T23:39:21.682Z,12.00
2019-03-01T23:44:41.519Z,13.80
2019-03-01T23:47:09.464Z,16.00
2019-03-01T23:49:59.377Z,11.80
2019-03-01T23:52:24.983Z,9.20
2019-03-01T23:55:11.303Z,15.40
2019-03-01T23:57:41.039Z,10.00
